Terminal Aerodrome Forecast
Issued by NWS

Home | Current Version | Previous Version | Text Only | Print | Product List | Glossary On
Versions: 1 2 3 4 5 6 7 8 9 10 11 12 13 14 15 16
000
FTAK31 PAFA 301733
TAFAFA
TAF
PAFA 301733Z 3018/3124 21006KT 5SM -RA BR SCT021 BKN029 OVC050
     FM302000 21006KT P6SM -RA BKN015 BKN025
     FM311200 20002KT 5SM -RA BR OVC015
     FM311500 23004KT 3SM -RA BR BKN007 OVC015
     FM312000 26006KT P6SM -SHRA OVC015=

USA.gov is the U.S. government's official web portal to all federal, state and local government web resources and services.